• Join FlightAware (Why Join?)
  • Login
  • US Flag 
02:56PM EDT


 

Airport Tracker/Info


-or-


 

Live Flight TrackerFlight Track Log ✈ CDG1157 ✈ 26-Sep-2013 ✈ ZSJN / TNA - ZSWY / WUS

Flight Track Log - Related Links

Times and Time Zones

All times are in EDT time to prevent confusion due to time zone crossing. See the CDG1157 flight status page for this flight to view local times or setup timezone preferences in your user account.

Time Position Orientation Groundspeed Altitude Reporting Facility
EDT Latitude Longitude Course Direction KTS MPH feet Rate Location/Type
11:36PM 35.9319 117.3031 176° South  Level Estimated
11:37PM 35.8394 117.3117 176° South  Level Estimated
11:38PM 35.7554 117.3195 176° South  Level Estimated
11:39PM 35.6714 117.3273 176° South  Level Estimated
11:40PM 35.5874 117.3351 176° South  Level Estimated
11:41PM 35.5034 117.3428 176° South  Level Estimated
11:42PM 35.4195 117.3505 176° South  Level Estimated
11:43PM 35.3355 117.3582 176° South  Level Estimated
11:44PM 35.2515 117.3659 176° South  Level Estimated
11:45PM 35.1675 117.3736 176° South  Level Estimated
11:46PM 35.0835 117.3813 176° South  Level Estimated
11:47PM 34.9995 117.3889 176° South  Level Estimated
11:48PM 34.9155 117.3966 176° South  Level Estimated
11:49PM 34.8315 117.4042 176° South  Level Estimated
11:50PM 34.7475 117.4118 176° South  Level Estimated
11:51PM 34.6636 117.4194 176° South  Level Estimated
11:52PM 34.5796 117.4269 176° South  Level Estimated
11:53PM 34.4955 117.4345 176° South  Level Estimated
11:54PM 34.4115 117.4420 176° South  Level Estimated
11:55PM 34.3275 117.4496 176° South  Level Estimated
11:56PM 34.2435 117.4571 176° South  Level Estimated
11:57PM 34.1595 117.4646 176° South  Level Estimated
11:58PM 34.0756 117.4721 176° South  Level Estimated
11:59PM 33.9916 117.4795 176° South  Level Estimated
12:00AM 33.9076 117.4870 176° South  Level Estimated
12:01AM 33.8236 117.4944 176° South  Level Estimated
12:02AM 33.7396 117.5018 176° South  Level Estimated
12:03AM 33.6555 117.5092 176° South  Level Estimated
12:04AM 33.5715 117.5166 176° South  Level Estimated
12:05AM 33.4875 117.5240 176° South  Level Estimated
12:06AM 33.4035 117.5314 176° South  Level Estimated
12:07AM 33.3195 117.5387 176° South  Level Estimated
12:08AM 33.2355 117.5461 176° South  Level Estimated
12:09AM 33.1516 117.5534 176° South  Level Estimated
12:10AM 33.0676 117.5607 176° South  Level Estimated
12:11AM 32.9836 117.5680 176° South  Level Estimated
12:12AM 32.8996 117.5753 176° South  Level Estimated
12:13AM 32.8156 117.5825 176° South  Level Estimated
12:14AM 32.7315 117.5898 176° South  Level Estimated
12:15AM 32.6475 117.5970 176° South  Level Estimated
12:16AM 32.5635 117.6043 176° South  Level Estimated
12:17AM 32.4795 117.6115 176° South  Level Estimated
12:18AM 32.3955 117.6187 176° South  Level Estimated
12:19AM 32.3115 117.6258 176° South  Level Estimated
12:20AM 32.2275 117.6330 176° South  Level Estimated
12:21AM 32.1435 117.6402 176° South  Level Estimated
12:22AM 32.0595 117.6473 176° South  Level Estimated
12:23AM 31.9755 117.6545 176° South  Level Estimated
12:24AM 31.8915 117.6616 176° South  Level Estimated
12:25AM 31.8074 117.6687 176° South  Level Estimated
12:26AM 31.7234 117.6758 176° South  Level Estimated
12:27AM 31.6394 117.6829 176° South  Level Estimated
12:28AM 31.5554 117.6899 176° South  Level Estimated
12:29AM 31.4714 117.6970 176° South  Level Estimated
12:30AM 31.3874 117.7040 176° South  Level Estimated
12:31AM 31.3034 117.7111 176° South  Level Estimated
12:32AM 31.2194 117.7181 176° South  Level Estimated
12:33AM 31.1354 117.7251 176° South  Level Estimated
12:34AM 31.0513 117.7321 176° South  Level Estimated
12:35AM 30.9673 117.7390 176° South  Level Estimated
12:36AM 30.8833 117.7460 176° South  Level Estimated
12:37AM 30.7993 117.7530 176° South  Level Estimated
12:38AM 30.7153 117.7599 176° South  Level Estimated
12:39AM 30.6313 117.7668 176° South  Level Estimated
12:40AM 30.5473 117.7738 176° South  Level Estimated
12:41AM 30.4633 117.7807 176° South  Level Estimated
12:42AM 30.3792 117.7876 176° South  Level Estimated
12:43AM 30.2952 117.7944 176° South  Level Estimated
12:44AM 30.2112 117.8013 176° South  Level Estimated
12:45AM 30.1272 117.8082 176° South  Level Estimated
12:46AM 30.0432 117.8150 176° South  Level Estimated
12:47AM 29.9591 117.8219 176° South  Level Estimated
12:48AM 29.8751 117.8287 176° South  Level Estimated
12:49AM 29.7911 117.8355 176° South  Level Estimated
12:50AM 29.7071 117.8423 176° South  Level Estimated
12:51AM 29.6231 117.8491 176° South  Level Estimated
12:52AM 29.5390 117.8559 176° South  Level Estimated
12:53AM 29.4550 117.8626 176° South  Level Estimated
12:54AM 29.3710 117.8694 176° South  Level Estimated
12:55AM 29.2870 117.8762 176° South  Level Estimated
12:56AM 29.2030 117.8829 176° South  Level Estimated
12:57AM 29.1189 117.8896 176° South  Level Estimated
12:58AM 29.0349 117.8963 176° South  Level Estimated
12:59AM 28.9509 117.9030 176° South  Level Estimated
01:00AM 28.8669 117.9097 176° South  Level Estimated
01:01AM 28.7829 117.9164 176° South  Level Estimated
01:02AM 28.6988 117.9230 176° South  Level Estimated
01:03AM 28.6148 117.9297 176° South  Level Estimated
01:04AM 28.5308 117.9364 176° South  Level Estimated
01:05AM 28.4468 117.9430 176° South  Level Estimated
01:06AM 28.3628 117.9496 176° South  Level Estimated
01:07AM 28.2787 117.9563 176° South  Level Estimated
01:08AM 28.1947 117.9629 176° South  Level Estimated
01:09AM 28.1107 117.9695 176° South  Level Estimated
01:10AM 28.0267 117.9760 176° South  Level Estimated
01:11AM 27.9426 117.9826 176° South  Level Estimated
01:12AM 27.8586 117.9892 176° South  Level Estimated
01:13AM 27.7746 117.9957 176° South  Level Estimated
01:14AM 27.7019 118.0014 176° South  Level Estimated
01:15AM 27.7019 118.0014 348° North  Level Estimated
01:16AM 27.7019 118.0014 348° North  Level Estimated
01:17AM 27.7019 118.0014 348° North  Level Estimated
01:18AM 27.7019 118.0014 348° North  Level Estimated
01:19AM 27.7019 118.0014 348° North  Level Estimated
01:20AM 27.7019 118.0014 348° North  Level Estimated
01:21AM 27.7019 118.0014 348° North  Level Estimated
01:22AM 27.7019 118.0014 348° North  Level Estimated
01:23AM 27.7019 118.0014 348° North  Level Estimated
01:24AM 27.7019 118.0014 348° North  Level Estimated
01:25AM 27.7019 118.0014 348° North  Level Estimated
01:26AM 27.7019 118.0014 348° North  Level Estimated
01:27AM 27.7019 118.0014 348° North  Level Estimated
01:28AM 27.7019 118.0014 348° North  Level Estimated
01:29AM 27.7019 118.0014 348° North  Level Estimated
01:30AM 27.7019 118.0014 348° North  Level Estimated
01:31AM 27.7019 118.0014 348° North  Level Estimated